createdAt,value
2018-02-22T00:11:21.109Z,0.17
2018-02-22T00:31:55.205Z,-0.02
2018-02-22T00:52:31.343Z,0.01
2018-02-22T01:13:07.028Z,-0.15
2018-02-22T01:33:44.043Z,-0.13
2018-02-22T01:54:18.394Z,-0.20
2018-02-22T02:32:56.523Z,-0.25
2018-02-22T02:53:32.442Z,-0.26
2018-02-22T03:14:05.562Z,-0.35
2018-02-22T03:34:38.990Z,-0.32
2018-02-22T03:55:16.104Z,-0.43
2018-02-22T04:15:51.586Z,-0.56
2018-02-22T04:36:24.499Z,-0.56
2018-02-22T04:56:57.618Z,-0.61
2018-02-22T05:17:31.968Z,-0.63
2018-02-22T05:38:06.460Z,-0.55
2018-02-22T05:58:42.511Z,-0.53
2018-02-22T06:19:18.752Z,-0.47
2018-02-22T06:39:50.916Z,-0.44
2018-02-22T07:00:23.148Z,-0.47
2018-02-22T07:21:05.439Z,-0.25
2018-02-22T07:41:49.337Z,-0.09
2018-02-22T08:02:24.901Z,0.14
2018-02-22T08:23:04.166Z,0.37
2018-02-22T08:43:38.688Z,0.71
2018-02-22T09:04:14.696Z,0.84
2018-02-22T09:24:46.897Z,1.15
2018-02-22T09:45:26.168Z,1.45
2018-02-22T10:06:02.968Z,1.65
2018-02-22T10:26:36.707Z,1.87
2018-02-22T10:47:11.976Z,1.97
2018-02-22T11:07:53.251Z,2.23
2018-02-22T11:28:41.566Z,2.27
2018-02-22T11:49:20.837Z,2.41
2018-02-22T12:10:02.337Z,2.54
2018-02-22T12:30:38.573Z,2.72
2018-02-22T12:51:11.561Z,2.74
2018-02-22T13:11:44.681Z,2.86
2018-02-22T13:32:18.111Z,3.01
2018-02-22T13:52:51.238Z,3.18
2018-02-22T14:13:24.352Z,3.30
2018-02-22T14:33:59.623Z,3.32
2018-02-22T14:54:31.820Z,3.39
2018-02-22T15:15:05.863Z,3.75
2018-02-22T15:35:39.292Z,4.51
2018-02-22T15:56:14.255Z,4.24
2018-02-22T16:16:46.464Z,3.21
2018-02-22T16:37:20.812Z,2.76
2018-02-22T16:57:59.452Z,2.47
2018-02-22T17:18:37.496Z,2.09
2018-02-22T18:00:26.133Z,1.72
2018-02-22T18:21:00.178Z,1.53
2018-02-22T18:41:44.361Z,1.30
2018-02-22T19:02:15.943Z,1.09
2018-02-22T19:22:50.452Z,0.92
2018-02-22T19:43:28.332Z,0.79
2018-02-22T20:04:03.603Z,0.60
2018-02-22T20:24:37.143Z,0.44
2018-02-22T20:45:11.084Z,0.41
2018-02-22T21:05:50.046Z,0.26
2018-02-22T21:26:26.874Z,0.07
2018-02-22T21:47:01.818Z,0.06
2018-02-22T22:07:38.925Z,-0.07
2018-02-22T22:28:11.430Z,-0.19
2018-02-22T22:48:47.318Z,-0.31
2018-02-22T23:09:23.514Z,-0.33
2018-02-22T23:30:00.013Z,-0.48
2018-02-22T23:50:37.128Z,-0.58
